Terminal Aerodrome Forecast
Issued by NWS Pittsburgh, PA

Current Version | Previous Version | Graphics & Text | Print | Product List | Glossary On
Versions: 1 2 3 4 5 6 7 8 9 10 11 12 13 14 15 16 17 18 19 20 21 22 23 24
796
FTUS41 KPBZ 171305 AAA
TAFPIT
TAF AMD
KPIT 171305Z 1713/1818 27005KT P6SM OVC015
      TEMPO 1713/1716 5SM -SN OVC008
     FM172000 26008KT P6SM BKN035
     FM180400 25007KT P6SM SCT100=

USA.gov is the U.S. government's official web portal to all federal, state and local government web resources and services.